createdAt,value
2019-02-25T00:02:27.797Z,50.50
2019-02-25T00:05:13.094Z,50.50
2019-02-25T00:07:58.373Z,50.70
2019-02-25T00:10:43.537Z,50.90
2019-02-25T00:13:30.307Z,51.30
2019-02-25T00:16:15.397Z,51.30
2019-02-25T00:19:01.055Z,51.60
2019-02-25T00:21:46.428Z,51.50
2019-02-25T00:24:31.799Z,51.50
2019-02-25T00:27:17.238Z,51.60
2019-02-25T00:30:08.166Z,51.80
2019-02-25T00:32:53.408Z,52.00
2019-02-25T00:35:38.402Z,52.10
2019-02-25T00:38:23.710Z,52.70
2019-02-25T00:41:09.162Z,52.00
2019-02-25T00:43:55.910Z,52.10
2019-02-25T00:46:41.332Z,52.30
2019-02-25T00:49:26.484Z,52.80
2019-02-25T00:52:11.646Z,53.30
2019-02-25T00:54:56.791Z,53.60
2019-02-25T00:57:41.921Z,53.90
2019-02-25T01:00:27.527Z,54.20
2019-02-25T01:03:12.707Z,54.30
2019-02-25T01:05:57.901Z,54.60
2019-02-25T01:08:42.660Z,54.80
2019-02-25T01:11:27.405Z,55.00
2019-02-25T01:14:12.905Z,55.00
2019-02-25T01:16:58.061Z,55.20
2019-02-25T01:19:43.415Z,55.30
2019-02-25T01:22:28.681Z,55.30
2019-02-25T01:25:16.230Z,55.50
2019-02-25T01:28:01.770Z,55.50
2019-02-25T01:30:48.249Z,55.60
2019-02-25T01:33:33.380Z,55.80
2019-02-25T01:36:18.864Z,56.20
2019-02-25T01:39:04.820Z,56.20
2019-02-25T01:41:50.344Z,56.10
2019-02-25T01:44:35.622Z,56.10
2019-02-25T01:47:20.935Z,56.40
2019-02-25T01:50:10.782Z,56.60
2019-02-25T01:52:56.217Z,56.70
2019-02-25T01:55:41.337Z,56.40
2019-02-25T01:58:26.433Z,56.60
2019-02-25T02:01:11.551Z,56.80
2019-02-25T02:03:57.939Z,57.10
2019-02-25T02:06:43.115Z,57.40
2019-02-25T02:09:28.267Z,57.50
2019-02-25T02:12:13.647Z,57.90
2019-02-25T02:14:58.959Z,58.20
2019-02-25T02:17:44.228Z,58.30
2019-02-25T02:20:29.227Z,58.50
2019-02-25T02:23:14.964Z,58.60
2019-02-25T02:26:00.302Z,58.90
2019-02-25T02:28:45.576Z,59.00
2019-02-25T02:31:30.538Z,59.50
2019-02-25T02:34:15.674Z,60.20
2019-02-25T02:37:01.051Z,60.20
2019-02-25T02:39:46.448Z,60.40
2019-02-25T02:42:32.061Z,61.00
2019-02-25T02:45:26.913Z,60.60
2019-02-25T02:48:28.670Z,61.10
2019-02-25T02:51:15.006Z,61.20
2019-02-25T02:54:00.590Z,61.40
2019-02-25T02:56:45.473Z,61.60
2019-02-25T02:59:31.153Z,61.90
2019-02-25T03:02:16.531Z,62.30
2019-02-25T03:05:02.687Z,62.70
2019-02-25T03:07:47.857Z,63.10
2019-02-25T03:10:33.224Z,63.40
2019-02-25T03:13:18.236Z,63.40
2019-02-25T03:16:03.953Z,63.60
2019-02-25T03:18:48.777Z,63.90
2019-02-25T03:21:34.087Z,64.20
2019-02-25T03:24:19.427Z,64.20
2019-02-25T03:27:04.602Z,64.80
2019-02-25T03:29:49.306Z,64.90
2019-02-25T03:32:34.321Z,65.80
2019-02-25T03:35:19.563Z,65.80
2019-02-25T03:38:04.863Z,66.40
2019-02-25T03:40:49.924Z,66.70
2019-02-25T03:43:35.236Z,66.80
2019-02-25T03:46:20.515Z,67.60
2019-02-25T03:49:06.489Z,67.60
2019-02-25T03:51:51.651Z,67.60
2019-02-25T03:54:36.719Z,68.00
2019-02-25T03:57:22.669Z,68.50
2019-02-25T04:00:14.812Z,69.30
2019-02-25T04:03:00.119Z,69.60
2019-02-25T04:05:45.621Z,70.10
2019-02-25T04:08:30.711Z,70.30
2019-02-25T04:11:15.767Z,70.20
2019-02-25T04:14:01.650Z,70.50
2019-02-25T04:16:47.137Z,71.50
2019-02-25T04:19:32.076Z,71.60
2019-02-25T04:22:16.991Z,71.40
2019-02-25T04:25:02.759Z,72.00
2019-02-25T04:27:48.169Z,72.40
2019-02-25T04:30:33.246Z,73.00
2019-02-25T04:33:18.324Z,73.50
2019-02-25T04:36:03.552Z,74.40
2019-02-25T04:38:49.289Z,74.40
2019-02-25T04:41:34.258Z,74.70
2019-02-25T04:44:21.093Z,75.10
2019-02-25T04:47:06.150Z,75.70
2019-02-25T04:49:51.443Z,77.80
2019-02-25T04:52:37.202Z,79.10
2019-02-25T04:55:22.082Z,78.90
2019-02-25T04:58:07.333Z,78.70
2019-02-25T05:00:52.319Z,79.40
2019-02-25T05:03:38.662Z,79.80
2019-02-25T05:06:23.979Z,80.60
2019-02-25T05:09:09.171Z,81.60
2019-02-25T05:11:55.040Z,81.90
2019-02-25T05:14:39.998Z,82.40
2019-02-25T05:17:25.476Z,83.20
2019-02-25T05:20:10.686Z,85.90
2019-02-25T05:22:57.874Z,86.80
2019-02-25T05:25:42.560Z,88.30
2019-02-25T05:28:29.469Z,89.70
2019-02-25T05:31:14.519Z,90.10
2019-02-25T05:33:59.605Z,90.70
2019-02-25T05:36:44.852Z,90.60
2019-02-25T05:39:30.280Z,90.60
2019-02-25T05:42:15.535Z,91.10
2019-02-25T05:45:00.936Z,91.50
2019-02-25T05:47:45.925Z,91.40
2019-02-25T05:50:31.107Z,91.50
2019-02-25T05:53:16.434Z,91.60
2019-02-25T05:56:01.667Z,91.80
2019-02-25T05:58:47.031Z,91.80
2019-02-25T06:01:32.035Z,91.80
2019-02-25T06:04:17.837Z,92.00
2019-02-25T06:07:03.363Z,92.10
2019-02-25T06:09:48.598Z,92.30
2019-02-25T06:12:33.861Z,92.30
2019-02-25T06:15:19.664Z,92.40
2019-02-25T06:18:04.402Z,92.50
2019-02-25T06:20:49.752Z,92.60
2019-02-25T06:23:34.846Z,92.60
2019-02-25T06:26:20.403Z,92.60
2019-02-25T06:29:05.485Z,92.60
2019-02-25T06:31:50.964Z,92.70
2019-02-25T06:34:35.973Z,92.80
2019-02-25T06:37:21.249Z,92.80
2019-02-25T06:40:18.344Z,92.90
2019-02-25T06:43:03.581Z,92.80
2019-02-25T06:45:48.802Z,92.70
2019-02-25T06:48:33.960Z,92.70
2019-02-25T06:51:19.495Z,92.70
2019-02-25T06:54:04.724Z,92.70
2019-02-25T06:56:50.058Z,92.60
2019-02-25T06:59:35.091Z,92.60
2019-02-25T07:02:20.180Z,92.60
2019-02-25T07:05:12.020Z,92.50
2019-02-25T07:07:59.329Z,92.50
2019-02-25T07:10:52.389Z,92.40
2019-02-25T07:13:48.381Z,92.50
2019-02-25T07:16:38.081Z,92.30
2019-02-25T07:19:28.392Z,92.30
2019-02-25T07:22:15.669Z,92.30
2019-02-25T07:25:05.134Z,92.30
2019-02-25T07:28:06.732Z,92.30
2019-02-25T07:30:53.917Z,92.20
2019-02-25T07:33:41.242Z,92.30
2019-02-25T07:36:28.696Z,92.20
2019-02-25T07:39:21.478Z,92.30
2019-02-25T07:42:17.443Z,92.20
2019-02-25T07:45:09.995Z,92.10
2019-02-25T07:47:57.398Z,92.00
2019-02-25T07:50:50.273Z,92.00
2019-02-25T07:53:46.566Z,91.90
2019-02-25T07:56:36.095Z,91.90
2019-02-25T07:59:34.866Z,92.10
2019-02-25T08:02:24.843Z,92.00
2019-02-25T08:05:11.895Z,91.90
2019-02-25T08:08:01.296Z,92.00
2019-02-25T08:10:57.290Z,91.90
2019-02-25T08:13:50.246Z,91.90
2019-02-25T08:16:49.127Z,91.80
2019-02-25T08:19:48.058Z,91.80
2019-02-25T08:22:53.147Z,91.80
2019-02-25T08:25:45.690Z,91.60
2019-02-25T08:28:39.468Z,91.50
2019-02-25T08:31:41.773Z,91.40
2019-02-25T08:34:45.555Z,91.40
2019-02-25T08:37:55.734Z,91.30
2019-02-25T08:40:46.430Z,91.30
2019-02-25T08:43:36.305Z,91.20
2019-02-25T08:46:23.634Z,91.10
2019-02-25T08:49:13.744Z,91.00
2019-02-25T08:52:01.056Z,90.80
2019-02-25T08:54:46.759Z,90.80
2019-02-25T08:57:32.066Z,90.70
2019-02-25T09:00:17.411Z,90.70
2019-02-25T09:03:03.315Z,90.60
2019-02-25T09:05:48.437Z,90.40
2019-02-25T09:08:34.493Z,90.30
2019-02-25T09:11:19.599Z,90.20
2019-02-25T09:14:04.621Z,90.10
2019-02-25T09:16:50.648Z,90.10
2019-02-25T09:19:35.762Z,89.80
2019-02-25T09:22:20.992Z,89.70
2019-02-25T09:25:09.492Z,89.20
2019-02-25T09:27:55.108Z,89.20
2019-02-25T09:30:39.672Z,89.00
2019-02-25T09:33:25.378Z,88.90
2019-02-25T09:36:11.371Z,88.30
2019-02-25T09:38:56.961Z,88.30
2019-02-25T09:41:43.952Z,87.90
2019-02-25T09:44:29.789Z,87.80
2019-02-25T09:47:14.988Z,87.40
2019-02-25T09:50:00.570Z,87.00
2019-02-25T09:52:45.547Z,87.20
2019-02-25T09:55:31.121Z,87.30
2019-02-25T09:58:16.743Z,87.00
2019-02-25T10:01:01.701Z,86.80
2019-02-25T10:03:47.279Z,86.40
2019-02-25T10:06:33.527Z,86.00
2019-02-25T10:09:18.864Z,86.20
2019-02-25T10:12:04.316Z,85.40
2019-02-25T10:14:49.658Z,84.80
2019-02-25T10:17:35.233Z,85.40
2019-02-25T10:20:20.764Z,85.20
2019-02-25T10:23:05.746Z,85.10
2019-02-25T10:25:50.659Z,84.80
2019-02-25T10:28:35.734Z,84.90
2019-02-25T10:31:21.030Z,84.70
2019-02-25T10:34:07.678Z,84.50
2019-02-25T10:36:53.264Z,84.20
2019-02-25T10:39:38.450Z,84.10
2019-02-25T10:42:25.034Z,83.90
2019-02-25T10:45:16.838Z,83.70
2019-02-25T10:48:02.071Z,83.50
2019-02-25T10:50:55.755Z,82.60
2019-02-25T10:53:34.026Z,81.70
2019-02-25T10:56:26.033Z,81.20
2019-02-25T10:59:10.675Z,80.10
2019-02-25T11:01:55.639Z,80.00
2019-02-25T11:04:40.357Z,80.20
2019-02-25T11:07:25.267Z,80.00
2019-02-25T11:10:18.703Z,79.70
2019-02-25T11:13:04.856Z,79.00
2019-02-25T11:15:49.934Z,78.80
2019-02-25T11:18:35.154Z,78.70
2019-02-25T11:21:20.117Z,78.20
2019-02-25T11:24:05.426Z,78.30
2019-02-25T11:26:51.608Z,77.70
2019-02-25T11:29:38.386Z,77.20
2019-02-25T11:32:24.423Z,76.60
2019-02-25T11:35:13.031Z,76.00
2019-02-25T11:37:59.804Z,75.00
2019-02-25T11:40:44.832Z,74.70
2019-02-25T11:43:30.228Z,73.70
2019-02-25T11:46:15.318Z,73.50
2019-02-25T11:49:00.169Z,73.10
2019-02-25T11:51:46.011Z,73.60
2019-02-25T11:54:31.319Z,71.90
2019-02-25T11:57:16.381Z,71.60
2019-02-25T12:00:02.139Z,71.10
2019-02-25T12:02:47.835Z,71.70
2019-02-25T12:05:32.764Z,70.70
2019-02-25T12:08:18.010Z,70.80
2019-02-25T12:11:04.912Z,70.30
2019-02-25T12:13:50.040Z,70.50
2019-02-25T12:16:36.053Z,71.60
2019-02-25T12:19:21.339Z,71.20
2019-02-25T12:22:06.640Z,71.10
2019-02-25T12:24:51.788Z,71.20
2019-02-25T12:27:37.583Z,70.60
2019-02-25T12:30:24.896Z,70.10
2019-02-25T12:33:09.772Z,70.50
2019-02-25T12:35:56.110Z,68.00
2019-02-25T12:38:41.302Z,67.70
2019-02-25T12:41:27.374Z,64.40
2019-02-25T12:44:12.742Z,64.50
2019-02-25T12:46:58.086Z,63.30
2019-02-25T12:49:43.139Z,63.40
2019-02-25T12:52:27.724Z,63.30
2019-02-25T12:55:15.536Z,64.10
2019-02-25T12:58:01.311Z,64.70
2019-02-25T13:00:47.477Z,64.80
2019-02-25T13:03:36.135Z,65.00
2019-02-25T13:06:21.175Z,64.50
2019-02-25T13:09:09.912Z,65.20
2019-02-25T13:11:55.041Z,65.00
2019-02-25T13:14:40.283Z,65.70
2019-02-25T13:17:25.351Z,66.00
2019-02-25T13:20:12.237Z,64.90
2019-02-25T13:22:56.982Z,62.30
2019-02-25T13:25:41.882Z,62.40
2019-02-25T13:28:28.666Z,62.00
2019-02-25T13:31:14.244Z,62.70
2019-02-25T13:33:59.279Z,63.10
2019-02-25T13:36:45.470Z,61.20
2019-02-25T13:39:30.231Z,62.50
2019-02-25T13:42:15.635Z,62.20
2019-02-25T13:45:03.168Z,63.20
2019-02-25T13:47:48.458Z,61.90
2019-02-25T13:50:33.744Z,61.20
2019-02-25T13:53:21.046Z,60.80
2019-02-25T13:56:05.995Z,60.30
2019-02-25T13:58:51.215Z,60.00
2019-02-25T14:01:36.155Z,59.70
2019-02-25T14:04:22.366Z,60.40
2019-02-25T14:07:08.657Z,60.00
2019-02-25T14:09:54.160Z,59.70
2019-02-25T14:12:39.271Z,59.20
2019-02-25T14:15:24.707Z,59.00
2019-02-25T14:18:10.572Z,58.30
2019-02-25T14:20:56.103Z,57.70
2019-02-25T14:23:41.871Z,57.30
2019-02-25T14:26:26.751Z,57.30
2019-02-25T14:29:11.972Z,57.50
2019-02-25T14:31:57.315Z,57.80
2019-02-25T14:34:46.006Z,58.10
2019-02-25T14:37:30.577Z,58.60
2019-02-25T14:40:19.234Z,58.80
2019-02-25T14:43:05.945Z,59.40
2019-02-25T14:45:53.928Z,59.70
2019-02-25T14:48:38.474Z,59.90
2019-02-25T14:51:23.377Z,59.70
2019-02-25T14:54:08.648Z,60.00
2019-02-25T14:56:54.850Z,59.40
2019-02-25T14:59:41.087Z,59.10
2019-02-25T15:02:26.716Z,58.40
2019-02-25T15:05:13.061Z,58.30
2019-02-25T15:07:59.144Z,57.90
2019-02-25T15:10:43.957Z,58.10
2019-02-25T15:13:30.348Z,58.10
2019-02-25T15:16:16.113Z,58.30
2019-02-25T15:19:01.673Z,57.70
2019-02-25T15:21:47.518Z,57.60
2019-02-25T15:24:34.259Z,57.50
2019-02-25T15:27:19.849Z,58.00
2019-02-25T15:30:20.681Z,58.20
2019-02-25T15:33:05.023Z,58.00
2019-02-25T15:35:50.137Z,58.50
2019-02-25T15:38:37.063Z,58.90
2019-02-25T15:41:22.319Z,59.10
2019-02-25T15:44:08.997Z,59.30
2019-02-25T15:46:54.545Z,59.80
2019-02-25T15:49:39.824Z,60.00
2019-02-25T15:52:27.579Z,60.10
2019-02-25T15:55:16.925Z,60.80
2019-02-25T15:58:02.094Z,61.10
2019-02-25T16:00:47.926Z,61.50
2019-02-25T16:03:35.050Z,61.50
2019-02-25T16:06:20.496Z,61.60
2019-02-25T16:09:06.644Z,61.90
2019-02-25T16:11:52.818Z,62.50
2019-02-25T16:14:38.962Z,62.90
2019-02-25T16:17:25.322Z,63.50
2019-02-25T16:20:12.187Z,64.00
2019-02-25T16:23:00.476Z,64.80
2019-02-25T16:25:46.215Z,65.20
2019-02-25T16:28:34.022Z,65.60
2019-02-25T16:31:19.181Z,65.80
2019-02-25T16:34:04.355Z,66.40
2019-02-25T16:36:51.747Z,66.20
2019-02-25T16:39:36.972Z,66.00
2019-02-25T16:42:25.969Z,66.10
2019-02-25T16:45:28.508Z,66.10
2019-02-25T16:48:12.410Z,65.60
2019-02-25T16:51:00.164Z,65.50
2019-02-25T16:53:49.928Z,65.80
2019-02-25T16:56:31.603Z,65.40
2019-02-25T16:59:18.516Z,65.10
2019-02-25T17:02:06.610Z,64.60
2019-02-25T17:04:51.501Z,64.10
2019-02-25T17:07:38.357Z,64.30
2019-02-25T17:10:26.609Z,64.50
2019-02-25T17:13:14.297Z,64.60
2019-02-25T17:15:57.882Z,63.30
2019-02-25T17:18:46.084Z,61.90
2019-02-25T17:21:31.025Z,60.80
2019-02-25T17:24:17.475Z,59.90
2019-02-25T17:27:06.982Z,59.90
2019-02-25T17:29:52.928Z,59.80
2019-02-25T17:32:38.355Z,60.10
2019-02-25T17:35:26.644Z,60.30
2019-02-25T17:38:12.339Z,60.50
2019-02-25T17:40:59.182Z,60.50
2019-02-25T17:43:44.503Z,60.50
2019-02-25T17:46:32.578Z,60.80
2019-02-25T17:49:18.995Z,61.00
2019-02-25T17:52:04.883Z,61.40
2019-02-25T17:54:50.155Z,61.60
2019-02-25T17:57:37.404Z,62.60
2019-02-25T18:00:26.687Z,63.40
2019-02-25T18:03:12.346Z,63.50
2019-02-25T18:05:58.985Z,64.30
2019-02-25T18:08:45.580Z,64.30
2019-02-25T18:11:31.142Z,64.50
2019-02-25T18:14:19.899Z,64.70
2019-02-25T18:17:06.139Z,65.40
2019-02-25T18:19:54.575Z,65.00
2019-02-25T18:22:40.051Z,65.30
2019-02-25T18:25:25.855Z,64.80
2019-02-25T18:28:13.599Z,65.20
2019-02-25T18:31:01.736Z,65.40
2019-02-25T18:33:48.431Z,65.40
2019-02-25T18:36:35.422Z,65.60
2019-02-25T18:39:23.091Z,65.90
2019-02-25T18:42:09.610Z,65.70
2019-02-25T18:44:55.435Z,66.10
2019-02-25T18:47:40.708Z,66.70
2019-02-25T18:50:28.558Z,66.70
2019-02-25T18:53:16.119Z,66.50
2019-02-25T18:56:02.137Z,66.90
2019-02-25T18:58:47.341Z,66.90
2019-02-25T19:01:33.772Z,67.10
2019-02-25T19:04:19.747Z,67.20
2019-02-25T19:07:07.913Z,67.30
2019-02-25T19:09:53.939Z,67.80
2019-02-25T19:12:40.274Z,67.90
2019-02-25T19:15:26.216Z,68.00
2019-02-25T19:18:13.260Z,68.40
2019-02-25T19:20:59.769Z,68.70
2019-02-25T19:23:46.471Z,68.90
2019-02-25T19:26:32.646Z,69.20
2019-02-25T19:29:19.468Z,69.40
2019-02-25T19:32:04.502Z,69.70
2019-02-25T19:34:51.830Z,70.10
2019-02-25T19:37:38.184Z,70.30
2019-02-25T19:40:24.640Z,70.40
2019-02-25T19:43:10.451Z,70.70
2019-02-25T19:45:57.167Z,70.90
2019-02-25T19:48:42.737Z,71.00
2019-02-25T19:51:29.792Z,71.40
2019-02-25T19:54:16.803Z,71.20
2019-02-25T19:57:01.786Z,71.40
2019-02-25T19:59:50.256Z,71.50
2019-02-25T20:02:34.751Z,71.70
2019-02-25T20:05:24.014Z,71.80
2019-02-25T20:08:08.884Z,72.10
2019-02-25T20:10:54.868Z,72.30
2019-02-25T20:13:40.580Z,72.30
2019-02-25T20:16:29.787Z,72.70
2019-02-25T20:19:13.936Z,72.90
2019-02-25T20:21:59.314Z,73.30
2019-02-25T20:24:46.078Z,73.40
2019-02-25T20:27:31.241Z,73.60
2019-02-25T20:30:19.167Z,73.90
2019-02-25T20:33:06.952Z,74.10
2019-02-25T20:35:53.537Z,74.40
2019-02-25T20:38:39.699Z,74.80
2019-02-25T20:41:26.607Z,75.20
2019-02-25T20:44:12.151Z,75.80
2019-02-25T20:46:59.577Z,76.30
2019-02-25T20:49:47.372Z,76.40
2019-02-25T20:52:31.374Z,76.50
2019-02-25T20:55:17.439Z,76.80
2019-02-25T20:58:04.410Z,77.00
2019-02-25T21:00:50.913Z,77.40
2019-02-25T21:03:36.175Z,77.70
2019-02-25T21:06:21.450Z,77.60
2019-02-25T21:09:09.285Z,77.70
2019-02-25T21:11:54.510Z,78.00
2019-02-25T21:14:41.121Z,78.30
2019-02-25T21:17:28.446Z,78.50
2019-02-25T21:20:15.415Z,78.50
2019-02-25T21:23:05.010Z,78.60
2019-02-25T21:25:48.209Z,78.90
2019-02-25T21:28:33.687Z,79.10
2019-02-25T21:31:21.389Z,79.50
2019-02-25T21:34:06.820Z,79.80
2019-02-25T21:36:53.646Z,80.30
2019-02-25T21:39:40.711Z,80.60
2019-02-25T21:42:26.845Z,81.00
2019-02-25T21:45:16.034Z,81.20
2019-02-25T21:48:04.694Z,81.60
2019-02-25T21:50:49.239Z,81.60
2019-02-25T21:53:34.248Z,82.00
2019-02-25T21:56:20.583Z,82.60
2019-02-25T21:59:08.414Z,83.00
2019-02-25T22:01:57.247Z,83.30
2019-02-25T22:04:45.378Z,83.60
2019-02-25T22:07:54.365Z,84.00
2019-02-25T22:10:39.365Z,84.10
2019-02-25T22:13:24.187Z,84.30
2019-02-25T22:16:14.201Z,84.70
2019-02-25T22:18:59.354Z,85.30
2019-02-25T22:21:44.615Z,85.60
2019-02-25T22:24:32.050Z,86.10
2019-02-25T22:27:18.550Z,86.40
2019-02-25T22:30:15.328Z,86.60
2019-02-25T22:33:02.552Z,86.70
2019-02-25T22:35:49.413Z,87.20
2019-02-25T22:38:34.702Z,87.40
2019-02-25T22:41:20.567Z,87.70
2019-02-25T22:44:08.542Z,87.70
2019-02-25T22:46:53.558Z,87.90
2019-02-25T22:49:38.597Z,88.20
2019-02-25T22:52:26.274Z,88.10
2019-02-25T22:55:17.372Z,88.30
2019-02-25T22:58:03.225Z,88.30
2019-02-25T23:00:51.154Z,88.40
2019-02-25T23:03:40.983Z,88.60
2019-02-25T23:06:25.354Z,88.60
2019-02-25T23:09:14.151Z,88.70
2019-02-25T23:11:58.721Z,88.70
2019-02-25T23:14:44.085Z,88.70
2019-02-25T23:17:31.181Z,88.90
2019-02-25T23:20:16.083Z,88.80
2019-02-25T23:23:04.834Z,88.70
2019-02-25T23:25:49.205Z,88.70
2019-02-25T23:28:37.126Z,88.20
2019-02-25T23:31:22.293Z,88.10
2019-02-25T23:34:10.046Z,88.40
2019-02-25T23:36:56.115Z,88.10
2019-02-25T23:39:42.687Z,88.00
2019-02-25T23:42:28.005Z,88.10
2019-02-25T23:45:17.442Z,88.10
2019-02-25T23:48:01.910Z,88.00
2019-02-25T23:50:50.192Z,88.10
2019-02-25T23:53:35.251Z,87.90
2019-02-25T23:56:22.706Z,88.00
2019-02-25T23:59:10.719Z,87.60
